Time;durP1;ratioP1;P1;durP2;ratioP2;P2;SDS_P1;SDS_P2;PMS_P1;PMS_P2;Temp;Humidity;BMP_temperature;BMP_pressure;BME280_temperature;BME280_humidity;BME280_pressure;Samples;Min_cycle;Max_cycle;Signal;HPM_P1;HPM_P2
2021/09/07 00:01:07;;;;;;;7.93;5.70;;;16.50;99.90;;;;;;5033553;28;20088;-87
2021/09/07 00:03:33;;;;;;;9.25;6.10;;;16.90;99.90;;;;;;5015802;28;20386;-87
2021/09/07 00:05:59;;;;;;;9.00;5.93;;;16.80;99.90;;;;;;5015787;28;20040;-87
2021/09/07 00:08:24;;;;;;;8.00;5.57;;;16.70;99.90;;;;;;5033727;28;20488;-87
2021/09/07 00:10:50;;;;;;;11.93;6.47;;;16.50;99.90;;;;;;5015818;28;20022;-87
2021/09/07 00:13:16;;;;;;;8.95;6.32;;;16.20;99.90;;;;;;5015908;28;20045;-87
2021/09/07 00:15:42;;;;;;;10.07;6.32;;;16.40;99.90;;;;;;5016511;28;20033;-87
2021/09/07 00:18:07;;;;;;;9.07;5.68;;;16.20;99.90;;;;;;5016563;28;20037;-88
2021/09/07 00:20:33;;;;;;;9.68;6.00;;;16.40;99.90;;;;;;5015982;28;20520;-87
2021/09/07 00:22:59;;;;;;;10.57;6.60;;;16.50;99.90;;;;;;5033371;28;20033;-87
2021/09/07 00:25:24;;;;;;;8.88;6.20;;;16.50;99.90;;;;;;5014408;28;20119;-87
2021/09/07 00:27:50;;;;;;;10.50;6.32;;;16.50;99.90;;;;;;5015585;28;20030;-87
2021/09/07 00:30:16;;;;;;;8.23;5.95;;;16.40;99.90;;;;;;5033286;28;20021;-87
2021/09/07 00:32:42;;;;;;;7.85;6.10;;;16.40;99.90;;;;;;5015522;28;20079;-87
2021/09/07 00:35:11;;;;;;;8.73;6.45;;;16.40;99.90;;;;;;5015513;28;20045;-87
2021/09/07 00:37:37;;;;;;;11.55;5.88;;;16.20;99.90;;;;;;5015316;28;20026;-87
2021/09/07 00:40:04;;;;;;;10.07;5.88;;;15.90;99.90;;;;;;5015517;28;20441;-87
2021/09/07 00:42:34;;;;;;;9.40;6.00;;;16.00;99.90;;;;;;5033447;28;20060;-87
2021/09/07 00:45:00;;;;;;;8.63;5.93;;;15.90;99.90;;;;;;5015471;28;20028;-87
2021/09/07 00:47:26;;;;;;;10.15;6.28;;;16.10;99.90;;;;;;5015268;28;20386;-87
2021/09/07 00:49:51;;;;;;;8.07;5.75;;;16.30;99.90;;;;;;5015327;28;20080;-87
2021/09/07 00:52:17;;;;;;;11.63;6.57;;;16.50;99.90;;;;;;5033147;28;20030;-87
2021/09/07 00:54:45;;;;;;;8.65;6.10;;;16.40;99.90;;;;;;5015411;28;20022;-86
2021/09/07 00:57:11;;;;;;;9.65;6.28;;;16.50;99.90;;;;;;5015329;28;20026;-87
2021/09/07 00:59:37;;;;;;;10.98;6.18;;;16.50;99.90;;;;;;5015179;28;20512;-87
2021/09/07 01:02:05;;;;;;;10.90;6.13;;;16.40;99.90;;;;;;5015179;28;20120;-87
2021/09/07 01:04:33;;;;;;;8.52;5.97;;;16.30;99.90;;;;;;5015309;28;20490;-87
2021/09/07 01:07:00;;;;;;;7.15;6.25;;;16.00;99.90;;;;;;5015121;28;20022;-87
2021/09/07 01:09:25;;;;;;;9.63;5.78;;;16.20;99.90;;;;;;5015149;28;20057;-87
2021/09/07 01:11:51;;;;;;;9.77;6.30;;;16.50;99.90;;;;;;5032894;28;20115;-87
2021/09/07 01:14:18;;;;;;;8.75;6.45;;;16.70;99.90;;;;;;5015124;28;20385;-87
2021/09/07 01:16:45;;;;;;;9.15;6.40;;;16.50;99.90;;;;;;5032768;28;20075;-87
2021/09/07 01:19:10;;;;;;;7.95;6.07;;;16.30;99.90;;;;;;5032749;28;20486;-87
2021/09/07 01:21:36;;;;;;;10.35;6.60;;;16.30;99.90;;;;;;5015062;28;20103;-87
2021/09/07 01:24:02;;;;;;;13.32;6.15;;;16.00;99.90;;;;;;5015025;28;20022;-87
2021/09/07 01:26:27;;;;;;;7.20;6.10;;;15.80;99.90;;;;;;5032834;28;20404;-87
2021/09/07 01:28:53;;;;;;;9.30;6.35;;;16.10;99.90;;;;;;5051391;28;20028;-87
2021/09/07 01:31:19;;;;;;;7.53;6.20;;;16.00;99.90;;;;;;5051296;28;20017;-87
2021/09/07 01:33:48;;;;;;;7.45;6.50;;;16.30;99.90;;;;;;5051310;28;20021;-87
2021/09/07 01:36:15;;;;;;;10.48;6.18;;;16.30;99.90;;;;;;5051250;28;20025;-87
2021/09/07 01:38:41;;;;;;;7.60;6.30;;;16.30;99.90;;;;;;5054779;28;20090;-87
2021/09/07 01:41:07;;;;;;;9.13;6.38;;;16.20;99.90;;;;;;5056068;28;20388;-87
2021/09/07 01:43:33;;;;;;;11.60;6.50;;;16.30;99.90;;;;;;5054721;28;20025;-87
2021/09/07 01:45:58;;;;;;;8.05;6.65;;;16.30;99.90;;;;;;5054598;28;20032;-87
2021/09/07 01:48:26;;;;;;;8.48;5.75;;;16.30;99.90;;;;;;5054666;28;20024;-87
2021/09/07 01:50:52;;;;;;;7.85;6.38;;;16.10;99.90;;;;;;5054543;28;20040;-87
2021/09/07 01:53:18;;;;;;;8.23;6.13;;;15.80;99.90;;;;;;5054599;28;20500;-87
2021/09/07 01:55:44;;;;;;;8.98;6.35;;;16.00;99.90;;;;;;5054516;28;20021;-87
2021/09/07 01:58:10;;;;;;;11.95;6.22;;;16.20;99.90;;;;;;5054609;28;20070;-87
2021/09/07 02:00:36;;;;;;;9.82;6.53;;;16.00;99.90;;;;;;5054407;28;20029;-87
2021/09/07 02:03:02;;;;;;;8.63;6.50;;;16.10;99.90;;;;;;5054466;28;20366;-87
2021/09/07 02:05:28;;;;;;;8.95;6.20;;;16.00;99.90;;;;;;5055088;28;20075;-87
2021/09/07 02:07:54;;;;;;;10.50;6.45;;;15.80;99.90;;;;;;5055517;28;20354;-87
2021/09/07 02:10:20;;;;;;;8.98;6.00;;;15.70;99.90;;;;;;5054245;28;20029;-87
2021/09/07 02:12:47;;;;;;;8.93;6.43;;;16.10;99.90;;;;;;5054190;28;20045;-87
2021/09/07 02:15:14;;;;;;;7.40;6.15;;;15.90;99.90;;;;;;5054163;28;20151;-87
2021/09/07 02:17:40;;;;;;;10.50;6.28;;;15.60;99.90;;;;;;5054153;28;20048;-87
2021/09/07 02:20:07;;;;;;;8.38;6.28;;;15.80;99.90;;;;;;5054031;28;20025;-88
2021/09/07 02:22:33;;;;;;;11.38;5.95;;;16.00;99.90;;;;;;5054005;28;20443;-87
2021/09/07 02:24:59;;;;;;;8.98;6.65;;;15.90;99.90;;;;;;5054156;28;20021;-87
2021/09/07 02:27:24;;;;;;;12.35;6.78;;;16.00;99.90;;;;;;5036551;28;20045;-87
2021/09/07 02:29:51;;;;;;;8.70;6.50;;;16.00;99.90;;;;;;5018929;28;20042;-86
2021/09/07 02:32:17;;;;;;;8.20;6.45;;;15.90;99.90;;;;;;5017873;28;20359;-87
2021/09/07 02:34:42;;;;;;;8.27;5.95;;;15.80;99.90;;;;;;5017442;28;20025;-87
2021/09/07 02:37:08;;;;;;;9.18;6.22;;;15.70;99.90;;;;;;5017360;28;20482;-87
2021/09/07 02:39:34;;;;;;;13.23;7.13;;;15.80;99.90;;;;;;5017302;28;20026;-87
2021/09/07 02:42:00;;;;;;;10.25;6.05;;;15.70;99.90;;;;;;5035026;28;20025;-87
2021/09/07 02:44:25;;;;;;;9.00;6.10;;;15.80;99.90;;;;;;5017208;28;20028;-87
2021/09/07 02:46:51;;;;;;;9.25;6.32;;;15.70;99.90;;;;;;5035110;28;20052;-87
2021/09/07 02:49:17;;;;;;;7.75;5.97;;;15.80;99.90;;;;;;5016574;28;20462;-87
2021/09/07 02:51:43;;;;;;;10.02;6.05;;;15.50;99.90;;;;;;5017101;28;20040;-87
2021/09/07 02:54:10;;;;;;;11.05;5.88;;;15.70;99.90;;;;;;5017001;28;20375;-86
2021/09/07 02:56:36;;;;;;;8.27;6.03;;;15.90;99.90;;;;;;5017028;28;20025;-87
2021/09/07 02:59:01;;;;;;;10.52;6.18;;;15.90;99.90;;;;;;5034729;28;20033;-87
2021/09/07 03:01:27;;;;;;;7.60;6.25;;;15.90;99.90;;;;;;5016910;28;20027;-87
2021/09/07 03:03:54;;;;;;;9.23;5.63;;;15.90;99.90;;;;;;5016806;28;20034;-87
2021/09/07 03:06:20;;;;;;;8.45;5.97;;;15.80;99.90;;;;;;5016734;28;20025;-87
2021/09/07 03:08:46;;;;;;;9.48;6.10;;;15.80;99.90;;;;;;5034485;28;20022;-87
2021/09/07 03:11:11;;;;;;;8.20;6.05;;;16.00;99.90;;;;;;5016680;28;20474;-87
2021/09/07 03:13:37;;;;;;;9.27;6.25;;;16.00;99.90;;;;;;5017186;28;20381;-87
2021/09/07 03:16:03;;;;;;;9.40;6.15;;;15.80;99.90;;;;;;5016574;28;20052;-86
2021/09/07 03:18:29;;;;;;;10.52;6.28;;;15.70;99.90;;;;;;5016520;28;20375;-87
2021/09/07 03:20:55;;;;;;;8.48;6.70;;;15.60;99.90;;;;;;5016528;28;20371;-87
2021/09/07 03:23:21;;;;;;;9.45;6.13;;;15.30;99.90;;;;;;5016542;28;20036;-87
2021/09/07 03:25:47;;;;;;;8.45;5.97;;;15.60;99.90;;;;;;5023930;28;20075;-87
2021/09/07 03:28:13;;;;;;;9.30;6.38;;;15.60;99.90;;;;;;5052783;28;20154;-87
2021/09/07 03:30:39;;;;;;;9.52;7.03;;;15.50;99.90;;;;;;5052708;28;20055;-87
2021/09/07 03:33:05;;;;;;;11.32;6.28;;;15.40;99.90;;;;;;5052671;28;20029;-87
2021/09/07 03:35:31;;;;;;;10.15;6.57;;;15.40;99.90;;;;;;5054178;28;20017;-87
2021/09/07 03:37:57;;;;;;;13.30;6.72;;;15.50;99.90;;;;;;5052556;28;20028;-87
2021/09/07 03:40:23;;;;;;;7.13;5.88;;;15.70;99.90;;;;;;5052563;28;20493;-87
2021/09/07 03:42:49;;;;;;;8.23;5.95;;;15.60;99.90;;;;;;5052469;28;20021;-87
2021/09/07 03:45:15;;;;;;;11.13;6.43;;;15.60;99.90;;;;;;5052416;28;20032;-87
2021/09/07 03:47:42;;;;;;;12.00;6.40;;;15.70;99.90;;;;;;5053673;28;20108;-87
2021/09/07 03:50:09;;;;;;;11.70;5.88;;;15.50;99.90;;;;;;5052424;28;20034;-87
2021/09/07 03:52:35;;;;;;;9.80;6.40;;;15.40;99.90;;;;;;5052387;28;20031;-87
2021/09/07 03:55:01;;;;;;;8.88;6.30;;;15.20;99.90;;;;;;5052358;28;20115;-87
2021/09/07 03:57:27;;;;;;;9.48;6.53;;;15.40;99.90;;;;;;5052353;28;20021;-87
2021/09/07 03:59:53;;;;;;;12.52;6.00;;;15.60;99.90;;;;;;5052209;28;20494;-87
2021/09/07 04:02:19;;;;;;;9.20;6.75;;;15.70;99.90;;;;;;5052322;28;20025;-87
2021/09/07 04:04:45;;;;;;;7.50;6.13;;;15.60;99.90;;;;;;5053480;28;20029;-87
2021/09/07 04:07:11;;;;;;;8.10;6.05;;;15.20;99.90;;;;;;5053373;28;20021;-86
2021/09/07 04:09:37;;;;;;;11.63;6.10;;;15.20;99.90;;;;;;5053431;28;20017;-87
2021/09/07 04:12:03;;;;;;;9.05;6.20;;;14.90;99.90;;;;;;5053277;28;20036;-87
2021/09/07 04:14:29;;;;;;;10.63;6.35;;;14.80;99.90;;;;;;5052075;28;20017;-87
2021/09/07 04:16:55;;;;;;;13.40;6.10;;;14.90;99.90;;;;;;5051997;28;20025;-86
2021/09/07 04:19:20;;;;;;;11.13;6.38;;;14.90;99.90;;;;;;5052037;28;20028;-87
2021/09/07 04:21:46;;;;;;;9.63;6.43;;;14.70;99.90;;;;;;5053292;28;20074;-87
2021/09/07 04:24:12;;;;;;;11.07;6.70;;;14.60;99.90;;;;;;5051957;28;20408;-87
2021/09/07 04:26:37;;;;;;;9.23;6.55;;;14.50;99.90;;;;;;5051647;28;20052;-87
2021/09/07 04:29:03;;;;;;;13.25;7.10;;;14.70;99.90;;;;;;5051955;28;20029;-86
2021/09/07 04:31:29;;;;;;;7.88;5.78;;;14.40;99.90;;;;;;5053150;28;20079;-87
2021/09/07 04:33:55;;;;;;;7.68;6.18;;;14.60;99.90;;;;;;5035292;28;20128;-87
2021/09/07 04:36:21;;;;;;;11.80;6.65;;;15.00;99.90;;;;;;5051729;28;20025;-87
2021/09/07 04:38:46;;;;;;;9.82;5.93;;;15.00;99.90;;;;;;5051801;28;20025;-87
2021/09/07 04:41:13;;;;;;;10.35;6.93;;;14.70;99.90;;;;;;5051978;28;20397;-87
2021/09/07 04:43:39;;;;;;;11.38;6.43;;;14.80;99.90;;;;;;5053023;28;20028;-87
2021/09/07 04:46:04;;;;;;;8.27;6.05;;;14.80;99.90;;;;;;5054419;28;20094;-87
2021/09/07 04:48:30;;;;;;;10.18;6.07;;;14.70;99.90;;;;;;5052295;28;20107;-87
2021/09/07 04:50:56;;;;;;;12.85;6.60;;;14.90;99.90;;;;;;5051795;28;20025;-87
2021/09/07 04:53:22;;;;;;;8.45;5.93;;;15.00;99.90;;;;;;5051696;28;20017;-87
2021/09/07 04:55:48;;;;;;;11.60;6.03;;;14.90;99.90;;;;;;5052973;28;20021;-90
2021/09/07 04:58:14;;;;;;;11.98;6.90;;;15.10;99.90;;;;;;5051568;28;20021;-87
2021/09/07 05:00:40;;;;;;;11.68;6.47;;;15.00;99.90;;;;;;5051665;28;20155;-87
2021/09/07 05:03:05;;;;;;;8.00;5.82;;;15.00;99.90;;;;;;5051548;28;20115;-87
2021/09/07 05:05:32;;;;;;;7.78;5.95;;;15.30;99.90;;;;;;5051481;28;20040;-88
2021/09/07 05:07:58;;;;;;;11.13;6.30;;;15.40;99.90;;;;;;5051538;28;20024;-87
2021/09/07 05:10:27;;;;;;;10.35;5.97;;;15.40;99.90;;;;;;5051600;28;20474;-88
2021/09/07 05:12:53;;;;;;;8.32;6.20;;;15.50;99.90;;;;;;5054033;28;20029;-87
2021/09/07 05:15:19;;;;;;;11.20;6.10;;;15.30;99.90;;;;;;5055280;28;20032;-88
2021/09/07 05:17:45;;;;;;;9.13;6.20;;;15.00;99.90;;;;;;5055277;28;20025;-87
2021/09/07 05:20:11;;;;;;;9.60;6.18;;;15.00;99.90;;;;;;5056343;28;20028;-87
2021/09/07 05:22:38;;;;;;;7.35;6.00;;;15.20;99.90;;;;;;5055199;28;20396;-88
2021/09/07 05:25:05;;;;;;;10.45;6.60;;;15.20;99.90;;;;;;5055168;28;20032;-88
2021/09/07 05:27:35;;;;;;;10.65;6.53;;;15.20;99.90;;;;;;5055067;28;20049;-88
2021/09/07 05:30:03;;;;;;;7.82;6.25;;;15.20;99.90;;;;;;5055194;28;20477;-87
2021/09/07 05:32:28;;;;;;;7.40;6.03;;;15.20;99.90;;;;;;5056277;28;20018;-88
2021/09/07 05:34:54;;;;;;;11.88;6.85;;;15.10;99.90;;;;;;5056261;28;20377;-88
2021/09/07 05:37:20;;;;;;;7.57;6.18;;;14.90;99.90;;;;;;5054784;28;20029;-87
2021/09/07 05:39:46;;;;;;;9.40;6.28;;;15.00;99.90;;;;;;5056335;28;20031;-87
2021/09/07 05:42:11;;;;;;;12.38;6.97;;;15.30;99.90;;;;;;5054986;28;20025;-87
2021/09/07 05:44:37;;;;;;;8.80;6.10;;;15.40;99.90;;;;;;5054861;28;20395;-87
2021/09/07 05:47:03;;;;;;;9.25;5.82;;;15.50;99.90;;;;;;5056135;28;20064;-87
2021/09/07 05:49:31;;;;;;;9.80;6.60;;;15.80;99.90;;;;;;5054568;28;20547;-88
2021/09/07 05:51:57;;;;;;;11.07;6.22;;;15.90;99.90;;;;;;5054663;28;20025;-87
2021/09/07 05:54:22;;;;;;;9.48;5.80;;;15.90;99.90;;;;;;5054472;28;20027;-88
2021/09/07 05:56:48;;;;;;;11.48;6.53;;;15.80;99.90;;;;;;5054433;28;20388;-88
2021/09/07 05:59:14;;;;;;;14.73;6.40;;;15.80;99.90;;;;;;5054417;28;20029;-88
2021/09/07 06:01:40;;;;;;;12.30;6.75;;;15.70;99.90;;;;;;5054348;28;20025;-87
2021/09/07 06:04:05;;;;;;;17.88;6.95;;;15.70;99.90;;;;;;5054262;28;20040;-88
2021/09/07 06:06:32;;;;;;;9.82;6.28;;;15.50;99.90;;;;;;5054222;28;20487;-88
2021/09/07 06:08:58;;;;;;;10.98;5.95;;;15.40;99.90;;;;;;5055036;28;20106;-87
2021/09/07 06:11:23;;;;;;;10.90;6.97;;;15.50;99.90;;;;;;5054199;28;20025;-88
2021/09/07 06:13:49;;;;;;;9.70;6.00;;;15.50;99.90;;;;;;5054091;28;20025;-87
2021/09/07 06:16:15;;;;;;;10.02;6.70;;;15.60;99.90;;;;;;5055312;28;20409;-87
2021/09/07 06:18:41;;;;;;;8.77;6.07;;;15.80;99.90;;;;;;5054067;28;20029;-87
2021/09/07 06:21:06;;;;;;;9.35;6.47;;;15.60;99.90;;;;;;5055277;28;20461;-88
2021/09/07 06:23:33;;;;;;;11.73;6.78;;;15.70;99.90;;;;;;5053927;28;20029;-87
2021/09/07 06:25:59;;;;;;;9.57;6.75;;;15.70;99.90;;;;;;5053781;28;20162;-87
2021/09/07 06:28:26;;;;;;;9.02;6.70;;;16.00;99.90;;;;;;5053799;28;20545;-88
2021/09/07 06:30:52;;;;;;;8.95;6.80;;;15.80;99.90;;;;;;5053798;28;20048;-88
2021/09/07 06:33:19;;;;;;;12.38;6.70;;;15.80;99.90;;;;;;5053785;28;20051;-88
2021/09/07 06:35:44;;;;;;;10.20;6.53;;;15.90;99.90;;;;;;5054989;28;20055;-87
2021/09/07 06:38:10;;;;;;;12.75;6.40;;;16.20;99.90;;;;;;5053552;28;20440;-88
2021/09/07 06:40:36;;;;;;;14.32;6.50;;;16.50;99.90;;;;;;5053689;28;20477;-87
2021/09/07 06:43:03;;;;;;;8.48;6.32;;;16.50;99.90;;;;;;5054851;28;20105;-87
2021/09/07 06:45:29;;;;;;;10.25;7.03;;;16.80;99.90;;;;;;5053523;28;20025;-87
2021/09/07 06:47:55;;;;;;;8.43;6.57;;;16.80;99.90;;;;;;5053435;28;20032;-87
2021/09/07 06:50:20;;;;;;;10.73;7.15;;;16.80;99.90;;;;;;5054718;28;20021;-87
2021/09/07 06:52:46;;;;;;;12.63;7.22;;;16.80;99.90;;;;;;5053546;28;20101;-87
2021/09/07 06:55:12;;;;;;;12.13;6.53;;;16.80;99.90;;;;;;5054106;28;20025;-87
2021/09/07 06:57:38;;;;;;;10.05;6.72;;;16.90;99.90;;;;;;5055247;28;20021;-87
2021/09/07 07:00:04;;;;;;;11.88;6.97;;;17.00;99.90;;;;;;5053806;28;20033;-87
2021/09/07 07:02:31;;;;;;;9.00;6.75;;;17.10;99.90;;;;;;5055002;28;20120;-87
2021/09/07 07:04:59;;;;;;;11.55;6.72;;;17.30;99.90;;;;;;5054359;28;20068;-87
2021/09/07 07:07:25;;;;;;;10.25;6.90;;;17.40;99.90;;;;;;5052947;28;20032;-86
2021/09/07 07:09:51;;;;;;;8.82;6.45;;;17.40;99.90;;;;;;5053260;28;20473;-86
2021/09/07 07:12:17;;;;;;;10.00;6.32;;;17.60;99.90;;;;;;5053259;28;20139;-87
2021/09/07 07:14:43;;;;;;;12.18;7.30;;;17.70;99.90;;;;;;5052900;28;20518;-86
2021/09/07 07:17:09;;;;;;;15.23;6.97;;;17.80;99.90;;;;;;5052844;28;20370;-86
2021/09/07 07:19:34;;;;;;;8.85;6.35;;;17.80;99.90;;;;;;5052750;28;20036;-87
2021/09/07 07:22:00;;;;;;;12.45;7.40;;;17.90;99.90;;;;;;5054231;28;20025;-87
2021/09/07 07:24:26;;;;;;;10.75;6.78;;;17.80;99.90;;;;;;5052662;28;20108;-87
2021/09/07 07:26:52;;;;;;;11.02;7.28;;;17.60;99.90;;;;;;5052473;28;20045;-87
2021/09/07 07:29:18;;;;;;;12.30;6.82;;;17.60;99.90;;;;;;5053864;28;20021;-87
2021/09/07 07:31:43;;;;;;;11.07;6.82;;;17.60;99.90;;;;;;5052543;28;20067;-87
2021/09/07 07:34:09;;;;;;;9.07;6.55;;;17.70;99.90;;;;;;5052398;28;20032;-87
2021/09/07 07:36:35;;;;;;;11.85;7.03;;;17.70;99.90;;;;;;5052411;28;20025;-87
2021/09/07 07:39:02;;;;;;;11.38;6.93;;;17.90;99.90;;;;;;5052842;28;20040;-87
2021/09/07 07:41:28;;;;;;;8.10;7.20;;;17.90;99.90;;;;;;5052510;28;20477;-87
2021/09/07 07:43:53;;;;;;;9.63;7.07;;;18.00;99.90;;;;;;5053722;28;20101;-87
2021/09/07 07:46:19;;;;;;;10.30;6.40;;;18.10;99.90;;;;;;5052346;28;20531;-87
2021/09/07 07:48:45;;;;;;;11.90;7.03;;;18.30;99.90;;;;;;5052635;28;20497;-87
2021/09/07 07:51:12;;;;;;;9.38;6.57;;;18.40;99.90;;;;;;5052310;28;20066;-87
2021/09/07 07:53:38;;;;;;;10.35;7.18;;;18.60;99.90;;;;;;5052253;28;20032;-87
2021/09/07 07:56:04;;;;;;;13.10;6.85;;;18.60;99.90;;;;;;5052450;28;20052;-86
2021/09/07 07:58:31;;;;;;;10.60;7.03;;;18.80;99.90;;;;;;5053426;28;20025;-86
2021/09/07 08:00:57;;;;;;;10.27;7.07;;;18.80;99.90;;;;;;5053587;28;20538;-87
2021/09/07 08:03:23;;;;;;;9.45;6.65;;;19.00;99.90;;;;;;5052087;28;20029;-87
2021/09/07 08:05:49;;;;;;;10.88;7.28;;;19.00;99.90;;;;;;5051935;28;20056;-87
2021/09/07 08:08:14;;;;;;;12.02;6.88;;;18.90;99.90;;;;;;5052456;28;20025;-91
2021/09/07 08:10:40;;;;;;;9.05;7.22;;;19.00;99.90;;;;;;5052842;28;20043;-90
2021/09/07 08:13:07;;;;;;;14.80;7.38;;;19.00;99.90;;;;;;5052749;28;20025;-90
2021/09/07 08:15:33;;;;;;;11.90;7.00;;;19.30;99.90;;;;;;5053438;28;20013;-89
2021/09/07 08:17:59;;;;;;;9.10;7.28;;;19.60;99.90;;;;;;5053388;28;20432;-90
2021/09/07 08:20:26;;;;;;;9.70;6.90;;;19.70;99.90;;;;;;5052264;28;20032;-89
2021/09/07 08:22:52;;;;;;;11.18;6.75;;;19.90;99.90;;;;;;5052248;28;20481;-89
2021/09/07 08:25:17;;;;;;;11.05;7.10;;;20.10;99.90;;;;;;5050713;28;20028;-90
2021/09/07 08:27:43;;;;;;;12.52;6.45;;;20.20;99.90;;;;;;5033515;28;20033;-89
2021/09/07 08:30:10;;;;;;;8.07;6.40;;;20.30;99.90;;;;;;5015892;28;20116;-90
2021/09/07 08:32:40;;;;;;;8.68;6.28;;;20.50;99.90;;;;;;5015496;28;20018;-89
2021/09/07 08:35:10;;;;;;;10.40;6.35;;;20.70;99.90;;;;;;5015932;28;20022;-89
2021/09/07 08:37:40;;;;;;;8.77;5.95;;;20.90;99.90;;;;;;5016049;28;20032;-89
2021/09/07 08:40:07;;;;;;;8.57;6.18;;;21.00;99.90;;;;;;5033317;28;20159;-90
2021/09/07 08:42:35;;;;;;;9.65;6.75;;;21.30;99.90;;;;;;5015503;28;20528;-87
2021/09/07 08:45:05;;;;;;;9.40;6.18;;;21.40;99.90;;;;;;5015258;28;20026;-87
2021/09/07 08:47:31;;;;;;;14.90;6.60;;;21.70;99.90;;;;;;5017243;28;20398;-87
2021/09/07 08:49:57;;;;;;;11.13;6.05;;;21.80;99.90;;;;;;5019293;28;20021;-87
2021/09/07 08:52:24;;;;;;;10.10;5.82;;;22.10;99.90;;;;;;5037017;28;20075;-87
2021/09/07 08:54:50;;;;;;;9.20;6.22;;;22.30;99.90;;;;;;5019276;28;20017;-87
2021/09/07 08:57:17;;;;;;;11.07;6.50;;;22.30;99.90;;;;;;5037027;28;20056;-87
2021/09/07 08:59:43;;;;;;;11.75;6.30;;;22.50;99.90;;;;;;5020104;28;20026;-86
2021/09/07 09:02:17;;;;;;;10.90;6.18;;;22.80;99.90;;;;;;5019708;28;20068;-87
2021/09/07 09:04:47;;;;;;;18.05;6.25;;;22.90;99.90;;;;;;5037049;28;20489;-87
2021/09/07 09:07:32;;;;;;;8.25;5.80;;;23.00;99.90;;;;;;5018965;28;20466;-87
2021/09/07 09:09:59;;;;;;;8.32;5.80;;;23.30;99.90;;;;;;5036802;28;20363;-87
2021/09/07 09:12:36;;;;;;;7.43;5.45;;;23.30;99.90;;;;;;5018815;28;20030;-86
2021/09/07 09:15:20;;;;;;;7.15;5.72;;;23.30;99.90;;;;;;5018897;28;20389;-86
2021/09/07 09:17:46;;;;;;;11.68;5.90;;;23.60;99.90;;;;;;5019453;28;20080;-86
2021/09/07 09:20:16;;;;;;;14.75;6.45;;;23.60;99.90;;;;;;5019912;28;20029;-86
2021/09/07 09:22:51;;;;;;;28.45;11.13;;;23.50;99.90;;;;;;5018770;28;20029;-85
2021/09/07 09:25:20;;;;;;;18.42;8.27;;;23.30;99.90;;;;;;5018606;28;20455;-86
2021/09/07 09:28:12;;;;;;;21.08;7.20;;;23.30;99.90;;;;;;5036280;28;20446;-86
2021/09/07 09:30:39;;;;;;;21.63;8.27;;;23.50;99.90;;;;;;5026581;28;20473;-86
2021/09/07 09:33:06;;;;;;;12.25;6.90;;;23.70;99.90;;;;;;5018544;28;20388;-87
2021/09/07 09:35:55;;;;;;;11.23;6.18;;;23.90;99.90;;;;;;5018784;28;20099;-87
2021/09/07 09:38:24;;;;;;;8.50;5.90;;;23.90;99.90;;;;;;5025586;28;20033;-88
2021/09/07 09:41:04;;;;;;;13.68;7.43;;;24.00;99.90;;;;;;5018340;28;20450;-87
2021/09/07 09:43:32;;;;;;;15.65;7.07;;;24.00;99.90;;;;;;5018394;28;20017;-87
2021/09/07 09:46:19;;;;;;;10.77;6.07;;;24.20;99.90;;;;;;5018245;28;20079;-86
2021/09/07 09:48:45;;;;;;;10.35;6.38;;;24.50;99.90;;;;;;5018305;28;20482;-87
2021/09/07 09:51:16;;;;;;;12.77;6.80;;;24.60;99.20;;;;;;5018178;28;20029;-87
2021/09/07 09:53:47;;;;;;;11.15;6.53;;;24.70;99.40;;;;;;5035959;28;20017;-87
2021/09/07 09:56:13;;;;;;;7.97;6.22;;;24.80;99.50;;;;;;5018071;28;20053;-87
2021/09/07 09:58:39;;;;;;;13.20;6.18;;;24.90;99.80;;;;;;5017624;28;20037;-87
2021/09/07 10:01:05;;;;;;;10.23;6.68;;;25.00;99.80;;;;;;5017950;28;20026;-87
2021/09/07 10:03:33;;;;;;;10.27;6.40;;;24.90;99.20;;;;;;5017880;28;20116;-86
2021/09/07 10:06:00;;;;;;;10.95;6.88;;;24.90;99.40;;;;;;5035526;28;20029;-86
2021/09/07 10:08:27;;;;;;;9.02;6.28;;;25.00;98.90;;;;;;5017902;28;20021;-87
2021/09/07 10:10:58;;;;;;;13.48;6.78;;;25.00;98.30;;;;;;5017747;28;20148;-87
2021/09/07 10:13:27;;;;;;;11.48;6.00;;;25.60;98.90;;;;;;5035478;28;20477;-87
2021/09/07 10:15:59;;;;;;;11.98;5.57;;;25.50;97.40;;;;;;5017725;28;20021;-87
2021/09/07 10:18:33;;;;;;;9.70;6.65;;;25.80;97.20;;;;;;5035471;28;20132;-87
2021/09/07 10:26:39;;;;;;;13.77;6.55;;;26.20;94.60;;;;;;5035307;28;20195;-87
2021/09/07 10:29:20;;;;;;;11.75;5.90;;;26.30;94.40;;;;;;5017419;28;20017;-87
2021/09/07 10:32:22;;;;;;;8.75;5.75;;;26.30;95.00;;;;;;5035231;28;20087;-86
2021/09/07 10:35:08;;;;;;;8.15;5.35;;;26.70;93.70;;;;;;5035103;28;20022;-87
2021/09/07 10:38:09;;;;;;;8.95;5.80;;;26.70;94.40;;;;;;5017244;28;20056;-87
2021/09/07 10:40:46;;;;;;;6.57;5.38;;;26.90;92.80;;;;;;5034945;28;20076;-87
2021/09/07 10:43:12;;;;;;;9.93;6.03;;;26.90;93.40;;;;;;5018603;28;20076;-83
2021/09/07 10:45:40;;;;;;;7.65;5.28;;;26.80;92.00;;;;;;5017741;28;20029;-85
2021/09/07 10:48:34;;;;;;;31.63;8.73;;;27.00;91.90;;;;;;5017844;28;20029;-85
2021/09/07 10:51:03;;;;;;;10.88;5.82;;;27.40;91.60;;;;;;5017176;28;20100;-86
2021/09/07 10:53:29;;;;;;;16.15;6.78;;;27.70;91.20;;;;;;5016935;28;20025;-86
2021/09/07 10:56:25;;;;;;;10.98;5.93;;;27.90;90.40;;;;;;5034711;28;20021;-86
2021/09/07 10:58:51;;;;;;;11.10;6.07;;;28.30;89.20;;;;;;5017390;28;20025;-86
2021/09/07 11:01:27;;;;;;;12.25;6.90;;;28.50;88.10;;;;;;5017287;28;20052;-86
2021/09/07 11:04:31;;;;;;;9.48;6.38;;;28.90;87.00;;;;;;5034932;28;20025;-86
2021/09/07 11:06:58;;;;;;;9.10;5.88;;;28.90;86.90;;;;;;5016715;28;20179;-86
2021/09/07 11:09:52;;;;;;;7.20;5.30;;;29.00;84.80;;;;;;5016039;28;20029;-86
2021/09/07 11:12:26;;;;;;;9.45;5.55;;;29.20;85.50;;;;;;5016751;28;20428;-86
2021/09/07 11:15:07;;;;;;;11.65;5.75;;;29.50;82.50;;;;;;5016518;28;20025;-86
2021/09/07 11:17:34;;;;;;;7.65;5.35;;;29.20;82.60;;;;;;5016743;28;20025;-85
2021/09/07 11:20:06;;;;;;;9.50;5.60;;;29.10;83.50;;;;;;5017129;28;20561;-86
2021/09/07 11:22:32;;;;;;;12.43;5.80;;;29.20;82.90;;;;;;5034189;28;20452;-86
2021/09/07 11:25:02;;;;;;;11.23;5.40;;;29.50;82.50;;;;;;5016338;28;20083;-86
2021/09/07 11:27:59;;;;;;;8.75;4.78;;;29.40;81.00;;;;;;5033812;28;20048;-86
2021/09/07 11:30:34;;;;;;;6.57;5.32;;;29.80;81.20;;;;;;5016246;28;20045;-86
2021/09/07 11:33:13;;;;;;;8.68;5.40;;;30.30;80.20;;;;;;5016315;28;20448;-86
2021/09/07 11:35:48;;;;;;;8.57;5.03;;;30.30;79.60;;;;;;5016996;28;20461;-86
2021/09/07 11:38:19;;;;;;;8.73;5.90;;;30.60;76.80;;;;;;5016067;28;20420;-86
2021/09/07 11:40:49;;;;;;;9.07;5.32;;;30.60;78.50;;;;;;5016157;28;20017;-86
2021/09/07 11:43:27;;;;;;;8.20;5.28;;;30.60;76.80;;;;;;5016013;28;20025;-86
2021/09/07 11:46:13;;;;;;;5.95;4.93;;;30.30;76.20;;;;;;5033701;28;20482;-86
2021/09/07 11:48:41;;;;;;;6.65;4.82;;;30.10;77.30;;;;;;5020201;28;20045;-86
2021/09/07 11:51:08;;;;;;;5.75;4.60;;;30.50;76.30;;;;;;5016067;28;20028;-86
2021/09/07 11:53:34;;;;;;;7.35;5.35;;;30.50;77.50;;;;;;5015757;28;20022;-86
2021/09/07 11:56:00;;;;;;;8.27;5.00;;;30.80;75.20;;;;;;5016057;28;20482;-89
2021/09/07 11:58:30;;;;;;;6.55;4.43;;;30.60;74.00;;;;;;5016073;28;20049;-90
2021/09/07 12:01:04;;;;;;;12.63;5.07;;;30.70;74.30;;;;;;5015950;28;20116;-90
2021/09/07 12:03:44;;;;;;;;;;;31.20;77.00;;;;;;5016738;28;20025;-90
2021/09/07 12:06:12;;;;;;;7.07;5.18;;;31.20;73.90;;;;;;5033550;28;20287;-90
2021/09/07 12:08:43;;;;;;;14.48;4.88;;;30.60;73.10;;;;;;5033577;28;20048;-89
2021/09/07 12:11:27;;;;;;;7.55;4.50;;;30.30;73.70;;;;;;5015898;28;20028;-91
2021/09/07 12:14:13;;;;;;;8.63;4.57;;;30.50;72.50;;;;;;5016294;28;20030;-92
2021/09/07 12:16:57;;;;;;;9.05;4.60;;;30.10;73.60;;;;;;5016955;28;20044;-89
2021/09/07 12:19:36;;;;;;;8.50;4.88;;;30.30;73.10;;;;;;5033811;28;20394;-90
2021/09/07 12:22:17;;;;;;;5.80;4.50;;;30.50;72.40;;;;;;5033698;28;20030;-90
2021/09/07 12:25:05;;;;;;;6.28;4.65;;;30.60;71.50;;;;;;5033740;28;20032;-90
2021/09/07 12:27:40;;;;;;;7.30;4.95;;;31.00;71.60;;;;;;5032990;28;20045;-89
2021/09/07 12:30:07;;;;;;;10.73;4.78;;;31.50;71.20;;;;;;5016661;28;20112;-89
2021/09/07 12:32:47;;;;;;;5.82;4.80;;;31.80;70.30;;;;;;5033471;28;20021;-91
2021/09/07 12:35:28;;;;;;;7.13;4.72;;;31.60;71.60;;;;;;5033609;28;20120;-90
2021/09/07 12:37:54;;;;;;;9.25;4.70;;;30.80;67.50;;;;;;5015713;28;20440;-90
2021/09/07 12:40:20;;;;;;;6.60;4.60;;;30.90;68.00;;;;;;5015513;28;20079;-90
2021/09/07 12:42:45;;;;;;;9.07;4.82;;;31.20;68.20;;;;;;5015840;28;20022;-91
2021/09/07 12:45:11;;;;;;;9.57;5.10;;;31.10;67.80;;;;;;5015548;28;20021;-90
2021/09/07 12:47:37;;;;;;;6.65;4.35;;;31.20;68.90;;;;;;5033194;28;20176;-89
2021/09/07 12:50:03;;;;;;;10.15;4.75;;;30.60;68.20;;;;;;5015631;28;20028;-90
2021/09/07 12:52:28;;;;;;;6.32;4.50;;;30.20;69.60;;;;;;5033279;28;20127;-90
2021/09/07 12:54:54;;;;;;;6.95;4.50;;;30.10;68.40;;;;;;5015390;28;20039;-90